Time;durP1;ratioP1;P1;durP2;ratioP2;P2;SDS_P1;SDS_P2;PMS_P1;PMS_P2;Temp;Humidity;BMP_temperature;BMP_pressure;BME280_temperature;BME280_humidity;BME280_pressure;Samples;Min_cycle;Max_cycle;Signal;HPM_P1;HPM_P2
2022/09/29 00:00:36;;;;;;;17.77;8.20;;;8.80;99.90;;;;;;21035621;28;20270;-75
2022/09/29 00:10:40;;;;;;;18.45;8.40;;;8.70;99.90;;;;;;21035772;28;20426;-75
2022/09/29 00:20:41;;;;;;;18.23;9.65;;;8.70;99.90;;;;;;20966137;28;20033;-75
2022/09/29 00:30:42;;;;;;;17.33;8.65;;;8.70;99.90;;;;;;20955721;28;20028;-75
2022/09/29 00:40:42;;;;;;;21.43;9.20;;;8.80;99.90;;;;;;20951902;28;20025;-74
2022/09/29 00:50:50;;;;;;;19.43;8.97;;;8.70;99.90;;;;;;21030171;28;20056;-74
2022/09/29 01:00:51;;;;;;;18.13;8.07;;;8.70;99.90;;;;;;21015169;28;20524;-74
2022/09/29 01:10:53;;;;;;;12.83;7.47;;;8.80;99.90;;;;;;21033189;28;20040;-74
2022/09/29 01:20:59;;;;;;;;;;;8.80;99.90;;;;;;20975015;28;20048;-74
2022/09/29 01:31:35;;;;;;;15.20;7.53;;;8.80;99.90;;;;;;20979807;28;19913;-75
2022/09/29 01:42:05;;;;;;;16.92;8.77;;;8.80;99.90;;;;;;20960512;28;20036;-74
2022/09/29 01:52:18;;;;;;;14.27;8.43;;;8.80;99.90;;;;;;20991127;28;20095;-75
2022/09/29 02:02:37;;;;;;;17.27;8.57;;;8.80;99.90;;;;;;20990944;28;20043;-74
2022/09/29 02:12:41;;;;;;;16.75;8.30;;;8.90;99.90;;;;;;21001254;28;20037;-74
2022/09/29 02:22:41;;;;;;;17.63;9.25;;;8.90;99.90;;;;;;20988039;28;20063;-74
2022/09/29 02:32:43;;;;;;;18.17;9.57;;;8.80;99.90;;;;;;21002932;28;20058;-74
2022/09/29 02:42:56;;;;;;;17.27;7.82;;;8.70;99.90;;;;;;20987036;28;20079;-74
2022/09/29 02:53:03;;;;;;;20.60;9.45;;;8.70;99.90;;;;;;20985496;28;20039;-74
2022/09/29 03:03:04;;;;;;;15.70;7.05;;;8.70;99.90;;;;;;21003281;28;20048;-74
2022/09/29 03:13:05;;;;;;;18.20;8.20;;;8.70;99.90;;;;;;21002497;28;20557;-74
2022/09/29 03:23:06;;;;;;;18.50;9.00;;;8.70;99.90;;;;;;21003088;28;20093;-74
2022/09/29 03:33:06;;;;;;;15.13;8.37;;;8.70;99.90;;;;;;21001580;28;20119;-74
2022/09/29 03:43:07;;;;;;;19.20;9.03;;;8.70;99.90;;;;;;21000405;28;20036;-74
2022/09/29 03:53:08;;;;;;;25.10;9.57;;;8.60;99.90;;;;;;20999334;28;20060;-74
2022/09/29 04:03:09;;;;;;;18.17;9.17;;;8.60;99.90;;;;;;20999261;28;20530;-74
2022/09/29 04:13:10;;;;;;;18.92;8.95;;;8.60;99.90;;;;;;20986365;28;20128;-76
2022/09/29 04:23:11;;;;;;;18.73;8.50;;;8.60;99.90;;;;;;21082191;28;20459;-76
2022/09/29 04:33:12;;;;;;;;;;;8.60;99.90;;;;;;21079889;28;20055;-74
2022/09/29 04:43:13;;;;;;;16.77;8.37;;;8.60;99.90;;;;;;21079673;28;19908;-75
2022/09/29 04:53:13;;;;;;;18.40;9.37;;;8.50;99.90;;;;;;21078647;28;20089;-74
2022/09/29 05:03:14;;;;;;;17.77;7.80;;;8.50;99.90;;;;;;21077928;28;20494;-75
2022/09/29 05:13:15;;;;;;;17.53;8.67;;;8.50;99.90;;;;;;21045291;28;20332;-74
2022/09/29 05:23:16;;;;;;;21.23;7.93;;;8.50;99.90;;;;;;21078030;28;20082;-76
2022/09/29 05:33:17;;;;;;;18.23;7.43;;;8.50;99.90;;;;;;21075846;28;20055;-77
2022/09/29 05:43:18;;;;;;;16.17;6.83;;;8.50;99.90;;;;;;21075277;28;20044;-76
2022/09/29 05:53:19;;;;;;;14.55;7.18;;;8.50;99.90;;;;;;21006849;28;20052;-77
2022/09/29 06:03:20;;;;;;;17.90;8.63;;;8.50;99.90;;;;;;21068721;28;20036;-76
2022/09/29 06:13:21;;;;;;;19.33;8.80;;;8.50;99.90;;;;;;21080453;28;20075;-77
2022/09/29 06:23:21;;;;;;;13.97;7.17;;;8.50;99.90;;;;;;21074768;28;20036;-77
2022/09/29 06:33:22;;;;;;;18.30;7.97;;;8.60;99.90;;;;;;21074916;28;20044;-78
2022/09/29 06:43:23;;;;;;;16.63;7.73;;;8.70;99.90;;;;;;21054855;28;20038;-77
2022/09/29 06:53:24;;;;;;;10.43;6.13;;;8.80;99.90;;;;;;21075006;28;20036;-77
2022/09/29 07:03:26;;;;;;;8.50;5.10;;;8.90;99.90;;;;;;21076128;28;20551;-77
2022/09/29 07:13:26;;;;;;;;;;;8.90;99.90;;;;;;21091389;28;20064;-77
2022/09/29 07:23:27;;;;;;;13.90;7.13;;;9.00;99.90;;;;;;21089361;28;19908;-77
2022/09/29 07:33:30;;;;;;;9.57;4.00;;;9.40;99.90;;;;;;21089607;28;20115;-78
2022/09/29 07:43:31;;;;;;;8.75;6.05;;;9.50;99.90;;;;;;21092601;28;20655;-78
2022/09/29 07:53:32;;;;;;;9.10;5.17;;;9.70;99.90;;;;;;21093562;28;20040;-78
2022/09/29 08:03:33;;;;;;;6.82;3.72;;;9.70;99.90;;;;;;21092935;28;20047;-78
2022/09/29 08:13:35;;;;;;;2.83;2.10;;;9.70;99.90;;;;;;21074935;28;20044;-78
2022/09/29 08:23:39;;;;;;;4.70;1.80;;;9.70;99.90;;;;;;21092156;28;20044;-78
2022/09/29 08:33:39;;;;;;;2.42;1.70;;;9.70;99.90;;;;;;21075613;28;20055;-78
2022/09/29 08:43:44;;;;;;;3.70;2.20;;;9.90;99.90;;;;;;21092175;28;20044;-78
2022/09/29 08:53:48;;;;;;;7.60;3.22;;;10.20;99.90;;;;;;21091124;28;20043;-78
2022/09/29 09:04:34;;;;;;;2.45;1.75;;;10.30;99.90;;;;;;21009919;28;20037;-78
2022/09/29 09:14:41;;;;;;;3.97;2.50;;;10.60;99.90;;;;;;20824483;28;20069;-77
2022/09/29 09:25:26;;;;;;;8.85;4.40;;;10.70;99.90;;;;;;21091391;28;20040;-78
2022/09/29 09:35:40;;;;;;;4.30;2.58;;;10.80;99.90;;;;;;21064818;28;20101;-77
2022/09/29 09:45:47;;;;;;;5.35;3.75;;;10.80;99.90;;;;;;21057399;28;20643;-78
2022/09/29 09:56:12;;;;;;;5.40;3.65;;;11.20;99.90;;;;;;21021128;28;20048;-78
2022/09/29 10:06:12;;;;;;;2.78;1.48;;;11.30;99.90;;;;;;21031630;28;20047;-78
2022/09/29 10:16:23;;;;;;;3.43;1.93;;;11.40;99.90;;;;;;21008986;28;20532;-78
2022/09/29 10:26:26;;;;;;;5.38;4.07;;;11.70;99.90;;;;;;21006561;28;20060;-78
2022/09/29 10:36:45;;;;;;;2.30;1.77;;;12.10;99.90;;;;;;21019774;28;20127;-78
2022/09/29 10:46:53;;;;;;;2.42;1.60;;;11.90;99.90;;;;;;21085685;28;20051;-78
2022/09/29 10:56:56;;;;;;;2.58;1.27;;;12.10;99.90;;;;;;21085189;28;20174;-78
2022/09/29 11:07:09;;;;;;;5.60;2.92;;;12.20;99.90;;;;;;21094547;28;20048;-79
2022/09/29 11:17:31;;;;;;;3.50;2.20;;;12.90;99.90;;;;;;21015283;28;20476;-78
2022/09/29 11:27:47;;;;;;;1.07;0.60;;;14.00;99.90;;;;;;21018466;28;20067;-79
2022/09/29 11:37:59;;;;;;;0.85;0.65;;;14.00;99.90;;;;;;21013136;28;20456;-78
2022/09/29 11:48:45;;;;;;;1.30;1.05;;;15.30;99.90;;;;;;21011925;28;20406;-78
2022/09/29 11:59:00;;;;;;;1.13;0.65;;;15.50;99.90;;;;;;20979744;28;20055;-78
2022/09/29 12:09:22;;;;;;;0.85;0.40;;;15.00;99.90;;;;;;21052884;28;20036;-77
2022/09/29 12:19:28;;;;;;;5.93;3.08;;;14.60;99.90;;;;;;21009058;28;20474;-77
2022/09/29 12:29:47;;;;;;;1.90;0.73;;;14.80;99.90;;;;;;21018870;28;20460;-78
2022/09/29 12:40:31;;;;;;;0.82;0.40;;;15.10;99.90;;;;;;21005079;28;20102;-77
2022/09/29 12:50:41;;;;;;;5.90;2.13;;;14.90;99.90;;;;;;20964085;28;20044;-77
2022/09/29 13:00:47;;;;;;;1.67;1.05;;;14.20;99.90;;;;;;21001667;28;20036;-78
2022/09/29 13:11:12;;;;;;;1.23;0.70;;;14.70;99.90;;;;;;21042965;28;20040;-78
2022/09/29 13:21:13;;;;;;;2.78;1.65;;;14.10;99.90;;;;;;21021892;28;20514;-77
2022/09/29 13:31:18;;;;;;;1.10;0.73;;;15.00;99.90;;;;;;20998569;28;20037;-77
2022/09/29 13:41:19;;;;;;;1.38;0.52;;;14.60;99.90;;;;;;20996399;28;20044;-77
2022/09/29 13:51:54;;;;;;;1.40;1.30;;;14.30;99.90;;;;;;20989890;28;20052;-77
2022/09/29 14:01:56;;;;;;;1.13;0.60;;;14.20;99.90;;;;;;20984054;28;20043;-77
2022/09/29 14:12:01;;;;;;;6.25;0.85;;;13.90;99.90;;;;;;21038300;28;20047;-76
2022/09/29 14:22:24;;;;;;;0.75;0.50;;;14.00;99.90;;;;;;21008250;28;20051;-76
2022/09/29 14:32:44;;;;;;;;;;;13.60;99.90;;;;;;21011686;28;20056;-76
2022/09/29 14:42:46;;;;;;;1.17;0.60;;;13.60;99.90;;;;;;21002227;28;19908;-77
2022/09/29 14:52:58;;;;;;;;;;;13.20;99.90;;;;;;21090912;28;20043;-77
2022/09/29 15:02:59;;;;;;;22.30;9.90;;;13.20;99.90;;;;;;21091316;28;20397;-76
2022/09/29 15:13:18;;;;;;;1.33;0.83;;;13.10;99.90;;;;;;21011811;28;20049;-76
2022/09/29 15:23:45;;;;;;;2.88;0.80;;;12.90;99.90;;;;;;20987587;28;20040;-76
2022/09/29 15:33:46;;;;;;;2.58;1.10;;;12.70;99.90;;;;;;20989171;28;20040;-76
2022/09/29 15:43:58;;;;;;;;;;;12.70;99.90;;;;;;20991042;28;20043;-76
2022/09/29 15:54:03;;;;;;;1.77;1.00;;;12.80;99.90;;;;;;20988769;28;19912;-76
2022/09/29 16:04:04;;;;;;;2.00;1.13;;;12.50;99.90;;;;;;20990119;28;20044;-76
2022/09/29 16:14:15;;;;;;;1.60;0.93;;;12.20;99.90;;;;;;20997149;28;20418;-77
2022/09/29 16:24:18;;;;;;;2.83;1.20;;;12.20;99.90;;;;;;20995239;28;20028;-77
2022/09/29 16:34:22;;;;;;;19.92;15.20;;;12.10;99.90;;;;;;20989775;28;20526;-76
2022/09/29 16:44:28;;;;;;;6.15;1.60;;;12.00;99.90;;;;;;21030718;28;20495;-76
2022/09/29 16:54:37;;;;;;;3.72;1.15;;;11.60;99.90;;;;;;20987737;28;20398;-76
2022/09/29 17:04:38;;;;;;;2.75;1.02;;;11.50;99.90;;;;;;20976267;28;20436;-77
2022/09/29 17:14:39;;;;;;;3.67;1.10;;;11.40;99.90;;;;;;20986054;28;20044;-77
2022/09/29 17:24:40;;;;;;;0.93;0.67;;;11.30;99.90;;;;;;20965506;28;20044;-76
2022/09/29 17:34:40;;;;;;;1.73;1.20;;;11.10;99.90;;;;;;20962434;28;20033;-76
2022/09/29 17:44:43;;;;;;;1.20;1.07;;;10.90;99.90;;;;;;20972855;28;20036;-77
2022/09/29 17:54:44;;;;;;;1.92;1.17;;;10.70;99.90;;;;;;20989625;28;20653;-77
2022/09/29 18:04:48;;;;;;;3.72;1.00;;;10.50;99.90;;;;;;20994642;28;20056;-77
2022/09/29 18:14:49;;;;;;;7.22;2.55;;;10.60;99.90;;;;;;20993376;28;20036;-77
2022/09/29 18:24:49;;;;;;;2.30;1.80;;;10.60;99.90;;;;;;20982443;28;20044;-77
2022/09/29 18:34:50;;;;;;;4.10;2.50;;;10.60;99.90;;;;;;20963856;28;20080;-76
2022/09/29 18:44:51;;;;;;;6.53;3.33;;;10.50;99.90;;;;;;20979587;28;20033;-76
2022/09/29 18:54:52;;;;;;;3.30;2.13;;;10.40;99.90;;;;;;20995662;28;20049;-77
2022/09/29 19:04:53;;;;;;;9.90;2.40;;;10.40;99.90;;;;;;21036807;28;20452;-76
2022/09/29 19:14:54;;;;;;;2.10;1.70;;;10.20;99.90;;;;;;21020223;28;20056;-77
2022/09/29 19:24:55;;;;;;;2.53;2.03;;;10.10;99.90;;;;;;21006048;28;20430;-77
2022/09/29 19:34:56;;;;;;;1.97;1.50;;;10.00;99.90;;;;;;21007683;28;20041;-77
2022/09/29 19:44:58;;;;;;;3.03;1.70;;;9.90;99.90;;;;;;21051932;28;20047;-76
2022/09/29 19:54:58;;;;;;;;;;;9.70;99.90;;;;;;21034853;28;20282;-78
2022/09/29 20:05:00;;;;;;;3.57;1.50;;;9.60;99.90;;;;;;21086011;28;19927;-78
2022/09/29 20:15:01;;;;;;;;;;;9.50;99.90;;;;;;21007887;28;20051;-77
2022/09/29 20:25:03;;;;;;;2.30;1.15;;;9.50;99.90;;;;;;20995197;28;20357;-77
2022/09/29 20:35:04;;;;;;;3.58;1.58;;;9.30;99.90;;;;;;20969520;28;20032;-77
2022/09/29 20:45:06;;;;;;;6.05;1.75;;;9.50;99.90;;;;;;21002012;28;20050;-78
2022/09/29 20:55:07;;;;;;;1.77;1.20;;;9.50;99.90;;;;;;21004543;28;20497;-78
2022/09/29 21:05:08;;;;;;;3.90;2.03;;;9.40;99.90;;;;;;21007345;28;20039;-77
2022/09/29 21:15:09;;;;;;;3.30;2.30;;;9.50;99.90;;;;;;21000806;28;20038;-78
2022/09/29 21:25:10;;;;;;;11.57;2.40;;;9.50;99.90;;;;;;20998087;28;20464;-77
2022/09/29 21:35:11;;;;;;;3.63;2.27;;;9.40;99.90;;;;;;20995998;28;20052;-78
2022/09/29 21:45:12;;;;;;;3.13;2.30;;;9.30;99.90;;;;;;20981987;28;20036;-78
2022/09/29 21:55:14;;;;;;;;;;;9.40;99.90;;;;;;20970445;28;20040;-77
2022/09/29 22:05:15;;;;;;;13.50;3.30;;;9.20;99.90;;;;;;21029251;28;19934;-77
2022/09/29 22:15:16;;;;;;;5.77;3.20;;;9.20;99.90;;;;;;20995250;28;20422;-77
2022/09/29 22:25:17;;;;;;;5.93;3.73;;;9.30;99.90;;;;;;20996938;28;20036;-77
2022/09/29 22:35:19;;;;;;;6.33;3.80;;;9.40;99.90;;;;;;21004492;28;20503;-77
2022/09/29 22:45:21;;;;;;;6.18;3.42;;;9.40;99.90;;;;;;21006135;28;20033;-78
2022/09/29 22:55:26;;;;;;;5.22;3.45;;;9.40;99.90;;;;;;21069864;28;20044;-78
2022/09/29 23:05:27;;;;;;;6.30;3.47;;;9.20;99.90;;;;;;21084785;28;20074;-78
2022/09/29 23:15:28;;;;;;;3.83;2.57;;;8.80;99.90;;;;;;21016786;28;20068;-77
2022/09/29 23:25:32;;;;;;;10.07;3.67;;;8.60;99.90;;;;;;21060886;28;20669;-77
2022/09/29 23:35:32;;;;;;;9.60;6.10;;;8.70;99.90;;;;;;21044574;28;20093;-77
2022/09/29 23:45:33;;;;;;;18.90;8.33;;;8.90;99.90;;;;;;21041269;28;20375;-77
2022/09/29 23:55:34;;;;;;;20.07;10.97;;;9.00;99.90;;;;;;21026902;28;20089;-78
